createdAt,value
2023-04-23T00:01:58.791Z,95.07
2023-04-23T00:04:35.069Z,95.54
2023-04-23T00:07:06.927Z,95.76
2023-04-23T00:09:34.808Z,95.99
2023-04-23T00:12:02.886Z,96.55
2023-04-23T00:14:30.787Z,97.55
2023-04-23T00:16:58.503Z,97.19
2023-04-23T00:19:26.120Z,97.44
2023-04-23T00:21:53.583Z,97.80
2023-04-23T00:24:21.288Z,97.56
2023-04-23T00:26:48.710Z,98.45
2023-04-23T00:29:16.313Z,97.75
2023-04-23T00:31:43.733Z,98.10
2023-04-23T00:34:11.360Z,98.11
2023-04-23T00:36:39.120Z,97.28
2023-04-23T00:39:06.699Z,97.28
2023-04-23T00:41:35.142Z,96.89
2023-04-23T00:44:03.245Z,96.93
2023-04-23T00:46:30.870Z,96.79
2023-04-23T00:48:59.260Z,97.10
2023-04-23T00:51:26.887Z,95.88
2023-04-23T00:53:54.526Z,96.11
2023-04-23T00:56:24.002Z,95.45
2023-04-23T00:58:55.304Z,96.02
2023-04-23T01:01:23.586Z,96.95
2023-04-23T01:03:53.348Z,98.14
2023-04-23T01:06:22.021Z,98.11
2023-04-23T01:08:49.521Z,99.27
2023-04-23T01:11:17.528Z,99.10
2023-04-23T01:13:45.087Z,99.66
2023-04-23T01:16:13.379Z,99.76
2023-04-23T01:18:41.784Z,100.00
2023-04-23T01:21:13.215Z,100.00
2023-04-23T01:23:40.893Z,100.00
2023-04-23T01:26:08.722Z,100.00
2023-04-23T01:28:37.696Z,100.00
2023-04-23T01:31:05.488Z,100.00
2023-04-23T01:33:36.272Z,100.00
2023-04-23T01:36:04.213Z,100.00
2023-04-23T01:38:32.233Z,99.88
2023-04-23T01:40:59.688Z,100.00
2023-04-23T01:43:28.100Z,100.00
2023-04-23T01:45:55.963Z,100.00
2023-04-23T01:48:24.320Z,100.00
2023-04-23T01:50:52.755Z,100.00
2023-04-23T01:53:21.501Z,100.00
2023-04-23T01:55:50.033Z,100.00
2023-04-23T01:58:17.522Z,100.00
2023-04-23T02:00:45.065Z,100.00
2023-04-23T02:03:12.835Z,100.00
2023-04-23T02:05:42.129Z,100.00
2023-04-23T02:08:10.558Z,100.00
2023-04-23T02:10:38.406Z,99.00
2023-04-23T02:13:05.955Z,94.90
2023-04-23T02:15:33.923Z,94.86
2023-04-23T02:18:01.437Z,97.78
2023-04-23T02:20:29.047Z,100.00
2023-04-23T02:22:56.812Z,100.00
2023-04-23T02:25:24.402Z,100.00
2023-04-23T02:27:51.883Z,100.00
2023-04-23T02:30:19.442Z,100.00
2023-04-23T02:32:47.014Z,100.00
2023-04-23T02:35:14.622Z,100.00
2023-04-23T02:37:42.077Z,100.00
2023-04-23T02:40:10.451Z,100.00
2023-04-23T02:42:38.422Z,100.00
2023-04-23T02:45:07.139Z,100.00
2023-04-23T02:47:34.673Z,100.00
2023-04-23T02:50:05.909Z,100.00
2023-04-23T02:52:34.442Z,100.00
2023-04-23T02:55:03.765Z,100.00
2023-04-23T02:57:31.457Z,100.00
2023-04-23T02:59:58.952Z,100.00
2023-04-23T03:02:34.038Z,100.00
2023-04-23T03:05:01.693Z,100.00
2023-04-23T03:07:29.215Z,100.00
2023-04-23T03:09:56.769Z,100.00
2023-04-23T03:12:24.333Z,100.00
2023-04-23T03:14:51.751Z,100.00
2023-04-23T03:17:19.360Z,100.00
2023-04-23T03:19:46.848Z,100.00
2023-04-23T03:22:14.595Z,100.00
2023-04-23T03:24:42.855Z,100.00
2023-04-23T03:27:10.499Z,100.00
2023-04-23T03:29:37.978Z,100.00
2023-04-23T03:32:06.973Z,100.00
2023-04-23T03:34:34.656Z,100.00
2023-04-23T03:37:02.801Z,100.00
2023-04-23T03:39:33.297Z,100.00
2023-04-23T03:42:02.031Z,100.00
2023-04-23T03:44:31.338Z,100.00
2023-04-23T03:46:59.342Z,100.00
2023-04-23T03:49:29.760Z,100.00
2023-04-23T03:51:57.320Z,100.00
2023-04-23T03:54:26.578Z,100.00
2023-04-23T03:57:05.787Z,100.00
2023-04-23T03:59:39.942Z,100.00
2023-04-23T04:02:08.991Z,100.00
2023-04-23T04:04:36.864Z,100.00
2023-04-23T04:07:05.677Z,100.00
2023-04-23T04:09:33.158Z,100.00
2023-04-23T04:12:02.777Z,100.00
2023-04-23T04:14:32.568Z,100.00
2023-04-23T04:17:00.248Z,100.00
2023-04-23T04:19:28.292Z,100.00
2023-04-23T04:21:56.213Z,100.00
2023-04-23T04:24:26.265Z,100.00
2023-04-23T04:26:54.117Z,100.00
2023-04-23T04:29:21.611Z,100.00
2023-04-23T04:31:49.291Z,100.00
2023-04-23T04:34:17.976Z,100.00
2023-04-23T04:36:45.817Z,100.00
2023-04-23T04:39:14.765Z,100.00
2023-04-23T04:41:42.902Z,100.00
2023-04-23T04:44:10.434Z,100.00
2023-04-23T04:46:40.637Z,100.00
2023-04-23T04:49:10.952Z,100.00
2023-04-23T04:51:40.278Z,100.00
2023-04-23T04:54:08.980Z,100.00
2023-04-23T04:56:36.474Z,100.00
2023-04-23T04:59:04.219Z,100.00
2023-04-23T05:01:33.390Z,100.00
2023-04-23T05:04:01.286Z,99.75
2023-04-23T05:06:28.960Z,99.12
2023-04-23T05:08:56.435Z,99.69
2023-04-23T05:11:23.860Z,99.64
2023-04-23T05:13:52.235Z,95.47
2023-04-23T05:16:20.243Z,93.38
2023-04-23T05:18:47.727Z,93.50
2023-04-23T05:21:16.205Z,92.35
2023-04-23T05:23:44.142Z,92.62
2023-04-23T05:26:11.727Z,92.19
2023-04-23T05:28:39.278Z,89.93
2023-04-23T05:31:06.890Z,88.24
2023-04-23T05:33:46.333Z,88.21
2023-04-23T05:36:16.671Z,86.52
2023-04-23T05:38:44.113Z,85.73
2023-04-23T05:41:11.778Z,84.68
2023-04-23T05:43:42.055Z,81.53
2023-04-23T05:46:09.743Z,81.99
2023-04-23T05:48:39.880Z,81.50
2023-04-23T05:51:07.804Z,81.92
2023-04-23T05:53:35.773Z,81.16
2023-04-23T05:56:03.287Z,79.79
2023-04-23T05:58:30.713Z,80.20
2023-04-23T06:00:59.035Z,80.15
2023-04-23T06:03:27.196Z,80.80
2023-04-23T06:05:54.994Z,80.57
2023-04-23T06:08:23.942Z,76.74
2023-04-23T06:10:52.494Z,73.96
2023-04-23T06:13:20.053Z,74.40
2023-04-23T06:15:47.561Z,76.74
2023-04-23T06:18:15.107Z,75.29
2023-04-23T06:20:42.872Z,75.97
2023-04-23T06:23:10.848Z,76.95
2023-04-23T06:25:38.278Z,76.62
2023-04-23T06:28:05.850Z,77.77
2023-04-23T06:30:42.412Z,77.09
2023-04-23T06:33:10.920Z,78.08
2023-04-23T06:35:38.433Z,77.28
2023-04-23T06:38:06.335Z,76.10
2023-04-23T06:40:34.557Z,72.65
2023-04-23T06:43:04.553Z,71.67
2023-04-23T06:45:52.318Z,72.04
2023-04-23T06:48:22.140Z,71.37
2023-04-23T06:50:50.585Z,70.60
2023-04-23T06:53:19.105Z,69.96
2023-04-23T06:55:46.789Z,74.02
2023-04-23T06:58:14.885Z,74.55
2023-04-23T07:00:43.517Z,75.55
2023-04-23T07:03:11.730Z,72.79
2023-04-23T07:05:39.412Z,73.84
2023-04-23T07:08:07.086Z,68.69
2023-04-23T07:10:34.599Z,65.93
2023-04-23T07:13:02.164Z,65.63
2023-04-23T07:15:29.723Z,70.35
2023-04-23T07:17:57.392Z,67.64
2023-04-23T07:20:24.897Z,63.89
2023-04-23T07:22:53.017Z,64.04
2023-04-23T07:25:22.596Z,63.61
2023-04-23T07:27:50.657Z,60.58
2023-04-23T07:30:19.193Z,62.74
2023-04-23T07:32:47.254Z,62.29
2023-04-23T07:35:15.083Z,63.12
2023-04-23T07:37:42.714Z,56.50
2023-04-23T07:40:10.745Z,56.04
2023-04-23T07:42:38.238Z,58.82
2023-04-23T07:45:06.981Z,60.24
2023-04-23T07:47:34.566Z,60.44
2023-04-23T07:50:02.106Z,55.95
2023-04-23T07:52:29.666Z,52.50
2023-04-23T07:54:57.103Z,51.88
2023-04-23T07:57:24.606Z,51.99
2023-04-23T07:59:52.947Z,52.30
2023-04-23T08:02:23.850Z,51.93
2023-04-23T08:04:53.746Z,50.14
2023-04-23T08:07:21.515Z,50.58
2023-04-23T08:09:49.134Z,51.74
2023-04-23T08:12:17.463Z,53.38
2023-04-23T08:14:47.409Z,54.44
2023-04-23T08:17:17.809Z,53.39
2023-04-23T08:19:45.300Z,53.11
2023-04-23T08:22:13.403Z,50.88
2023-04-23T08:24:41.243Z,48.98
2023-04-23T08:27:08.830Z,49.78
2023-04-23T08:29:36.444Z,50.11
2023-04-23T08:32:07.113Z,49.75
2023-04-23T08:34:35.881Z,46.21
2023-04-23T08:37:04.648Z,50.33
2023-04-23T08:39:33.230Z,46.58
2023-04-23T08:42:16.289Z,46.33
2023-04-23T08:44:43.974Z,48.70
2023-04-23T08:47:13.539Z,48.56
2023-04-23T08:49:43.598Z,49.53
2023-04-23T08:52:23.275Z,48.97
2023-04-23T08:54:57.475Z,46.78
2023-04-23T08:57:26.188Z,47.66
2023-04-23T08:59:55.321Z,47.71
2023-04-23T09:02:25.886Z,46.62
2023-04-23T09:04:56.160Z,48.36
2023-04-23T09:07:24.083Z,45.68
2023-04-23T09:09:52.546Z,47.28
2023-04-23T09:12:21.864Z,46.40
2023-04-23T09:14:51.541Z,46.43
2023-04-23T09:17:21.750Z,46.20
2023-04-23T09:19:55.136Z,46.10
2023-04-23T09:22:52.536Z,43.71
2023-04-23T09:25:22.542Z,42.69
2023-04-23T09:27:54.182Z,42.12
2023-04-23T09:30:23.431Z,41.54
2023-04-23T09:32:52.818Z,41.95
2023-04-23T09:35:20.853Z,39.84
2023-04-23T09:37:53.365Z,42.64
2023-04-23T09:40:25.073Z,41.10
2023-04-23T09:42:56.358Z,44.29
2023-04-23T09:45:27.654Z,42.22
2023-04-23T09:48:16.078Z,44.98
2023-04-23T09:50:43.704Z,39.91
2023-04-23T09:53:11.366Z,39.05
2023-04-23T09:55:41.832Z,37.96
2023-04-23T09:58:16.610Z,38.45
2023-04-23T10:00:44.230Z,37.88
2023-04-23T10:03:12.447Z,39.49
2023-04-23T10:08:16.556Z,39.49
2023-04-23T10:11:02.449Z,38.13
2023-04-23T10:13:36.879Z,42.25
2023-04-23T10:16:20.714Z,41.85
2023-04-23T10:18:53.134Z,41.43
2023-04-23T10:21:21.187Z,40.45
2023-04-23T10:23:53.554Z,39.92
2023-04-23T10:26:24.838Z,36.84
2023-04-23T10:28:56.018Z,37.53
2023-04-23T10:31:24.331Z,37.94
2023-04-23T10:33:59.142Z,38.71
2023-04-23T10:36:28.313Z,40.82
2023-04-23T10:39:00.354Z,38.70
2023-04-23T10:41:39.778Z,41.60
2023-04-23T10:44:15.867Z,41.44
2023-04-23T10:46:57.436Z,39.61
2023-04-23T10:49:31.356Z,39.14
2023-04-23T10:52:19.685Z,40.78
2023-04-23T10:54:57.225Z,40.59
2023-04-23T10:57:25.401Z,37.42
2023-04-23T10:59:56.365Z,36.50
2023-04-23T11:02:26.299Z,37.53
2023-04-23T11:04:59.083Z,36.41
2023-04-23T11:07:34.196Z,38.30
2023-04-23T11:10:15.417Z,38.26
2023-04-23T11:12:46.456Z,36.84
2023-04-23T11:15:16.619Z,36.72
2023-04-23T11:17:48.518Z,37.93
2023-04-23T11:20:25.093Z,37.50
2023-04-23T11:22:53.636Z,37.34
2023-04-23T11:25:26.364Z,35.76
2023-04-23T11:27:56.763Z,36.91
2023-04-23T11:30:26.166Z,36.35
2023-04-23T11:32:56.850Z,39.35
2023-04-23T11:35:30.614Z,39.62
2023-04-23T11:37:58.276Z,37.68
2023-04-23T11:40:26.511Z,35.50
2023-04-23T11:42:55.688Z,35.04
2023-04-23T11:45:27.600Z,36.04
2023-04-23T11:47:57.261Z,37.69
2023-04-23T11:50:30.704Z,36.76
2023-04-23T11:53:10.626Z,37.07
2023-04-23T11:55:38.750Z,35.85
2023-04-23T11:58:07.260Z,33.90
2023-04-23T12:00:36.399Z,35.06
2023-04-23T12:03:08.640Z,37.03
2023-04-23T12:05:40.822Z,34.28
2023-04-23T12:08:18.101Z,35.13
2023-04-23T12:11:02.870Z,34.79
2023-04-23T12:13:33.995Z,35.48
2023-04-23T12:16:04.858Z,33.79
2023-04-23T12:18:38.162Z,33.28
2023-04-23T12:21:13.713Z,34.14
2023-04-23T12:23:44.933Z,33.13
2023-04-23T12:26:15.550Z,32.56
2023-04-23T12:28:59.174Z,33.54
2023-04-23T12:31:29.503Z,33.75
2023-04-23T12:34:05.640Z,32.09
2023-04-23T12:36:35.367Z,34.87
2023-04-23T12:39:33.861Z,33.17
2023-04-23T12:42:08.225Z,33.54
2023-04-23T12:44:37.864Z,32.56
2023-04-23T12:47:10.294Z,34.05
2023-04-23T12:49:41.106Z,31.70
2023-04-23T12:52:12.132Z,31.31
2023-04-23T12:54:41.410Z,30.03
2023-04-23T12:57:12.670Z,29.88
2023-04-23T12:59:40.629Z,31.85
2023-04-23T13:02:08.491Z,30.85
2023-04-23T13:04:37.994Z,31.49
2023-04-23T13:07:05.757Z,31.20
2023-04-23T13:09:36.228Z,31.92
2023-04-23T13:12:03.917Z,33.88
2023-04-23T13:14:38.122Z,32.36
2023-04-23T13:17:08.441Z,31.23
2023-04-23T13:19:37.681Z,32.14
2023-04-23T13:22:05.348Z,29.68
2023-04-23T13:24:33.082Z,27.40
2023-04-23T13:27:01.608Z,27.72
2023-04-23T13:29:29.604Z,30.13
2023-04-23T13:31:58.545Z,29.11
2023-04-23T13:34:26.044Z,30.04
2023-04-23T13:36:53.644Z,28.47
2023-04-23T13:39:21.481Z,30.14
2023-04-23T13:41:59.108Z,30.52
2023-04-23T13:44:34.289Z,28.00
2023-04-23T13:47:02.067Z,28.57
2023-04-23T13:49:29.627Z,30.93
2023-04-23T13:52:04.417Z,30.13
2023-04-23T13:54:32.312Z,28.35
2023-04-23T13:57:01.231Z,29.46
2023-04-23T13:59:28.909Z,29.30
2023-04-23T14:01:56.391Z,29.47
2023-04-23T14:04:24.314Z,29.74
2023-04-23T14:06:52.318Z,28.53
2023-04-23T14:09:19.755Z,29.80
2023-04-23T14:11:47.453Z,30.26
2023-04-23T14:14:14.932Z,29.95
2023-04-23T14:16:43.509Z,29.17
2023-04-23T14:19:12.193Z,29.46
2023-04-23T14:21:40.652Z,27.07
2023-04-23T14:24:33.503Z,29.46
2023-04-23T14:27:03.722Z,30.68
2023-04-23T14:29:42.462Z,30.47
2023-04-23T14:32:12.547Z,30.42
2023-04-23T14:34:40.068Z,28.04
2023-04-23T14:37:07.757Z,29.13
2023-04-23T14:39:35.357Z,29.37
2023-04-23T14:42:03.111Z,29.14
2023-04-23T14:44:30.623Z,28.50
2023-04-23T14:46:59.033Z,29.80
2023-04-23T14:49:27.160Z,28.97
2023-04-23T14:51:54.811Z,29.51
2023-04-23T14:54:23.488Z,30.55
2023-04-23T14:56:54.163Z,29.73
2023-04-23T14:59:23.041Z,30.51
2023-04-23T15:01:50.901Z,29.29
2023-04-23T15:04:18.663Z,28.86
2023-04-23T15:06:46.264Z,29.23
2023-04-23T15:09:13.776Z,27.77
2023-04-23T15:11:43.337Z,29.10
2023-04-23T15:14:32.945Z,29.52
2023-04-23T15:17:01.061Z,30.38
2023-04-23T15:19:31.352Z,30.21
2023-04-23T15:21:59.007Z,29.74
2023-04-23T15:24:26.649Z,31.56
2023-04-23T15:26:55.133Z,31.26
2023-04-23T15:29:24.526Z,29.63
2023-04-23T15:31:57.912Z,30.16
2023-04-23T15:34:25.616Z,29.88
2023-04-23T15:36:53.129Z,31.40
2023-04-23T15:39:21.502Z,33.41
2023-04-23T15:41:50.950Z,33.61
2023-04-23T15:44:19.065Z,33.86
2023-04-23T15:46:46.629Z,34.37
2023-04-23T15:49:14.206Z,33.56
2023-04-23T15:51:41.855Z,33.18
2023-04-23T15:54:09.673Z,33.33
2023-04-23T15:56:37.738Z,33.23
2023-04-23T15:59:06.045Z,35.08
2023-04-23T16:01:33.782Z,35.66
2023-04-23T16:04:10.512Z,36.74
2023-04-23T16:06:39.595Z,37.49
2023-04-23T16:09:09.628Z,36.52
2023-04-23T16:11:38.873Z,36.77
2023-04-23T16:14:09.622Z,37.01
2023-04-23T16:16:38.771Z,37.80
2023-04-23T16:19:06.534Z,37.57
2023-04-23T16:21:34.126Z,37.04
2023-04-23T16:24:01.600Z,37.57
2023-04-23T16:26:32.025Z,39.43
2023-04-23T16:29:11.302Z,40.07
2023-04-23T16:31:46.186Z,41.87
2023-04-23T16:34:13.849Z,41.90
2023-04-23T16:36:42.960Z,42.28
2023-04-23T16:39:35.506Z,43.39
2023-04-23T16:42:06.608Z,42.63
2023-04-23T16:44:34.992Z,42.77
2023-04-23T16:47:02.839Z,42.91
2023-04-23T16:49:31.344Z,41.32
2023-04-23T16:52:01.656Z,42.16
2023-04-23T16:54:29.860Z,42.20
2023-04-23T16:56:58.527Z,43.71
2023-04-23T16:59:26.182Z,43.22
2023-04-23T17:01:53.756Z,44.76
2023-04-23T17:04:21.434Z,44.66
2023-04-23T17:06:49.376Z,45.32
2023-04-23T17:09:16.891Z,45.79
2023-04-23T17:11:46.235Z,45.49
2023-04-23T17:14:21.019Z,46.27
2023-04-23T17:16:54.567Z,46.55
2023-04-23T17:19:24.657Z,46.96
2023-04-23T17:21:52.248Z,47.47
2023-04-23T17:24:30.563Z,47.81
2023-04-23T17:27:05.735Z,47.89
2023-04-23T17:29:38.054Z,48.71
2023-04-23T17:32:08.430Z,49.15
2023-04-23T17:35:09.462Z,48.90
2023-04-23T17:37:41.604Z,49.66
2023-04-23T17:40:12.684Z,49.83
2023-04-23T17:42:50.825Z,51.08
2023-04-23T17:45:18.864Z,51.76
2023-04-23T17:47:47.850Z,50.52
2023-04-23T17:50:17.634Z,50.54
2023-04-23T17:52:51.830Z,51.38
2023-04-23T17:55:26.544Z,51.85
2023-04-23T17:57:54.908Z,52.27
2023-04-23T18:00:26.190Z,52.48
2023-04-23T18:02:56.546Z,53.18
2023-04-23T18:05:27.512Z,53.44
2023-04-23T18:07:59.552Z,52.95
2023-04-23T18:10:29.452Z,53.35
2023-04-23T18:13:07.274Z,54.07
2023-04-23T18:15:42.447Z,54.48
2023-04-23T18:18:18.605Z,54.12
2023-04-23T18:20:47.759Z,55.10
2023-04-23T18:23:17.238Z,54.88
2023-04-23T18:25:47.716Z,54.87
2023-04-23T18:28:16.316Z,55.21
2023-04-23T18:30:44.857Z,56.09
2023-04-23T18:33:36.369Z,55.88
2023-04-23T18:36:47.226Z,56.09
2023-04-23T18:39:16.696Z,55.79
2023-04-23T18:41:49.878Z,55.37
2023-04-23T18:44:19.624Z,55.85
2023-04-23T18:46:48.755Z,55.27
2023-04-23T18:49:55.910Z,55.74
2023-04-23T18:52:36.978Z,56.09
2023-04-23T18:55:06.127Z,56.84
2023-04-23T18:57:34.179Z,57.33
2023-04-23T19:00:02.994Z,57.22
2023-04-23T19:02:35.558Z,57.45
2023-04-23T19:05:05.946Z,57.50
2023-04-23T19:07:37.277Z,57.90
2023-04-23T19:10:16.403Z,57.69
2023-04-23T19:12:45.976Z,57.72
2023-04-23T19:15:16.587Z,56.94
2023-04-23T19:17:47.986Z,58.19
2023-04-23T19:20:18.889Z,58.60
2023-04-23T19:22:53.640Z,60.41
2023-04-23T19:25:24.914Z,60.76
2023-04-23T19:27:56.222Z,59.88
2023-04-23T19:30:26.792Z,60.49
2023-04-23T19:32:56.547Z,61.01
2023-04-23T19:35:24.203Z,61.42
2023-04-23T19:37:53.834Z,61.36
2023-04-23T19:40:23.916Z,62.10
2023-04-23T19:42:52.156Z,60.97
2023-04-23T19:45:22.110Z,60.89
2023-04-23T19:47:52.439Z,60.45
2023-04-23T19:50:22.570Z,61.04
2023-04-23T19:52:50.542Z,61.07
2023-04-23T19:55:22.613Z,61.26
2023-04-23T19:57:51.807Z,60.76
2023-04-23T20:00:21.507Z,60.68
2023-04-23T20:02:49.897Z,61.95
2023-04-23T20:05:26.257Z,62.73
2023-04-23T20:07:57.519Z,62.54
2023-04-23T20:10:30.715Z,64.45
2023-04-23T20:12:59.980Z,66.16
2023-04-23T20:15:32.598Z,67.60
2023-04-23T20:18:04.973Z,70.04
2023-04-23T20:20:35.159Z,70.50
2023-04-23T20:23:08.432Z,72.81
2023-04-23T20:25:36.614Z,73.66
2023-04-23T20:28:09.893Z,73.89
2023-04-23T20:30:41.630Z,74.76
2023-04-23T20:33:10.834Z,75.16
2023-04-23T20:35:43.021Z,75.41
2023-04-23T20:38:13.270Z,75.88
2023-04-23T20:40:43.839Z,76.06
2023-04-23T20:43:15.523Z,75.44
2023-04-23T20:45:43.211Z,76.64
2023-04-23T20:48:10.803Z,75.81
2023-04-23T20:50:38.356Z,76.01
2023-04-23T20:53:06.375Z,75.67
2023-04-23T20:55:36.938Z,75.73
2023-04-23T20:58:04.556Z,75.35
2023-04-23T21:00:32.767Z,74.67
2023-04-23T21:03:01.881Z,72.71
2023-04-23T21:05:29.975Z,71.31
2023-04-23T21:07:59.126Z,70.05
2023-04-23T21:10:26.732Z,70.60
2023-04-23T21:12:54.413Z,70.86
2023-04-23T21:15:24.240Z,70.84
2023-04-23T21:17:52.792Z,70.27
2023-04-23T21:20:20.845Z,70.00
2023-04-23T21:22:48.232Z,70.38
2023-04-23T21:25:16.445Z,70.17
2023-04-23T21:27:46.052Z,71.28
2023-04-23T21:30:42.941Z,72.29
2023-04-23T21:33:10.610Z,72.13
2023-04-23T21:35:38.070Z,71.57
2023-04-23T21:38:06.356Z,73.20
2023-04-23T21:40:34.555Z,73.58
2023-04-23T21:43:02.843Z,74.09
2023-04-23T21:45:31.048Z,75.23
2023-04-23T21:47:59.085Z,75.13
2023-04-23T21:50:29.696Z,73.84
2023-04-23T21:52:59.495Z,74.38
2023-04-23T21:55:30.879Z,73.16
2023-04-23T21:58:09.919Z,73.12
2023-04-23T22:00:44.702Z,74.89
2023-04-23T22:03:15.417Z,74.99
2023-04-23T22:05:49.464Z,75.02
2023-04-23T22:08:17.268Z,75.82
2023-04-23T22:10:45.294Z,75.61
2023-04-23T22:13:14.330Z,75.23
2023-04-23T22:15:42.347Z,75.35
2023-04-23T22:18:12.187Z,74.66
2023-04-23T22:20:39.853Z,73.54
2023-04-23T22:23:07.379Z,74.12
2023-04-23T22:25:34.808Z,74.37
2023-04-23T22:28:03.578Z,72.11
2023-04-23T22:30:31.183Z,73.67
2023-04-23T22:33:00.060Z,72.61
2023-04-23T22:35:27.795Z,74.36
2023-04-23T22:37:55.456Z,75.04
2023-04-23T22:40:23.167Z,76.50
2023-04-23T22:42:50.681Z,77.99
2023-04-23T22:45:18.356Z,79.30
2023-04-23T22:47:45.877Z,80.57
2023-04-23T22:50:13.591Z,82.14
2023-04-23T22:52:41.442Z,82.60
2023-04-23T22:55:09.514Z,82.42
2023-04-23T22:57:37.080Z,82.75
2023-04-23T23:00:07.710Z,83.53
2023-04-23T23:02:35.368Z,82.99
2023-04-23T23:05:02.926Z,84.10
2023-04-23T23:07:30.519Z,84.11
2023-04-23T23:09:57.983Z,83.85
2023-04-23T23:12:25.438Z,84.18
2023-04-23T23:14:52.972Z,84.52
2023-04-23T23:17:20.666Z,84.22
2023-04-23T23:19:48.127Z,84.93
2023-04-23T23:22:15.678Z,84.15
2023-04-23T23:24:43.093Z,83.53
2023-04-23T23:27:11.418Z,82.26
2023-04-23T23:29:38.871Z,81.36
2023-04-23T23:32:06.667Z,81.83
2023-04-23T23:34:34.097Z,82.54
2023-04-23T23:37:01.517Z,82.72
2023-04-23T23:39:28.962Z,83.39
2023-04-23T23:41:58.375Z,84.38
2023-04-23T23:44:27.077Z,83.62
2023-04-23T23:46:54.685Z,84.56
2023-04-23T23:49:22.351Z,84.69
2023-04-23T23:51:49.886Z,84.73
2023-04-23T23:54:17.376Z,84.36
2023-04-23T23:56:44.802Z,83.25
2023-04-23T23:59:12.327Z,82.45
